createdAt,value
2023-02-25T00:00:49.299Z,22.03
2023-02-25T00:02:03.015Z,22.03
2023-02-25T00:02:50.179Z,22.02
2023-02-25T00:04:48.888Z,22.03
2023-02-25T00:05:48.760Z,22.03
2023-02-25T00:06:48.649Z,22.03
2023-02-25T00:28:46.813Z,22.02
2023-02-25T00:31:46.835Z,22.02
2023-02-25T00:32:46.561Z,22.02
2023-02-25T00:33:46.412Z,22.03
2023-02-25T00:34:46.314Z,22.02
2023-02-25T00:35:46.239Z,22.03
2023-02-25T00:36:46.271Z,22.02
2023-02-25T00:37:46.102Z,22.03
2023-02-25T00:38:46.019Z,22.03
2023-02-25T00:39:46.042Z,22.03
2023-02-25T00:55:44.804Z,22.03
2023-02-25T00:56:44.735Z,22.03
2023-02-25T00:57:44.659Z,22.03
2023-02-25T00:58:44.598Z,22.02
2023-02-25T00:59:44.549Z,22.03
2023-02-25T01:00:51.560Z,22.03
2023-02-25T01:01:45.328Z,22.03
2023-02-25T01:02:44.206Z,22.02
2023-02-25T01:03:44.587Z,22.02
2023-02-25T01:04:43.965Z,22.03
2023-02-25T01:05:43.844Z,22.02
2023-02-25T01:06:44.094Z,22.02
2023-02-25T01:07:43.614Z,22.02
2023-02-25T01:08:43.497Z,22.02
2023-02-25T01:09:43.372Z,22.02
2023-02-25T01:10:43.288Z,22.02
2023-02-25T01:11:43.164Z,22.02
2023-02-25T01:12:43.038Z,22.02
2023-02-25T01:13:43.081Z,22.02
2023-02-25T01:14:42.864Z,22.02
2023-02-25T01:15:42.821Z,22.02
2023-02-25T01:16:42.705Z,22.02
2023-02-25T01:17:43.093Z,22.02
2023-02-25T01:18:42.568Z,22.01
2023-02-25T01:19:42.504Z,22.01
2023-02-25T01:20:42.416Z,22.01
2023-02-25T01:21:42.394Z,22.02
2023-02-25T01:22:42.267Z,22.02
2023-02-25T01:23:42.207Z,22.02
2023-02-25T01:24:42.117Z,22.02
2023-02-25T01:25:42.089Z,22.02
2023-02-25T01:26:41.972Z,22.02
2023-02-25T01:27:41.909Z,22.02
2023-02-25T01:28:41.817Z,22.02
2023-02-25T01:29:41.748Z,22.02
2023-02-25T01:30:41.681Z,22.02
2023-02-25T01:31:41.794Z,22.02
2023-02-25T01:32:41.750Z,22.02
2023-02-25T01:33:41.454Z,22.02
2023-02-25T01:34:41.389Z,22.02
2023-02-25T01:35:41.305Z,22.02
2023-02-25T01:36:41.248Z,22.02
2023-02-25T01:37:41.156Z,22.02
2023-02-25T01:38:41.087Z,22.02
2023-02-25T01:39:41.011Z,22.02
2023-02-25T01:40:40.936Z,22.02
2023-02-25T01:41:40.905Z,22.02
2023-02-25T01:42:40.792Z,22.02
2023-02-25T01:43:40.726Z,22.02
2023-02-25T01:44:40.648Z,22.02
2023-02-25T01:45:40.572Z,22.02
2023-02-25T01:46:40.567Z,22.02
2023-02-25T01:47:40.433Z,22.02
2023-02-25T01:48:40.364Z,22.02
2023-02-25T01:49:40.299Z,22.01
2023-02-25T01:50:40.227Z,22.03
2023-02-25T01:51:40.149Z,22.02
2023-02-25T01:52:40.070Z,22.02
2023-02-25T01:53:39.991Z,22.02
2023-02-25T01:54:39.921Z,22.02
2023-02-25T01:55:39.846Z,22.02
2023-02-25T01:56:40.111Z,22.02
2023-02-25T01:57:39.696Z,22.02
2023-02-25T01:58:39.628Z,22.02
2023-02-25T01:59:39.545Z,22.02
2023-02-25T02:00:40.198Z,22.03
2023-02-25T02:01:39.609Z,22.02
2023-02-25T02:02:39.377Z,22.02
2023-02-25T02:03:39.260Z,22.02
2023-02-25T02:04:39.186Z,22.02
2023-02-25T02:05:40.106Z,22.02
2023-02-25T02:06:39.116Z,22.02
2023-02-25T02:07:38.958Z,22.02
2023-02-25T02:08:38.907Z,22.03
2023-02-25T02:09:38.897Z,22.03
2023-02-25T02:10:38.734Z,22.02
2023-02-25T02:11:38.667Z,22.02
2023-02-25T02:12:38.606Z,22.02
2023-02-25T02:13:38.517Z,22.02
2023-02-25T02:14:38.444Z,22.02
2023-02-25T02:15:38.384Z,22.02
2023-02-25T02:16:38.353Z,22.02
2023-02-25T02:17:38.232Z,22.02
2023-02-25T02:18:38.162Z,22.02
2023-02-25T02:19:38.092Z,22.01
2023-02-25T02:20:38.010Z,22.02
2023-02-25T02:21:37.942Z,22.02
2023-02-25T02:22:37.874Z,22.02
2023-02-25T02:23:37.792Z,22.02
2023-02-25T02:24:37.727Z,22.02
2023-02-25T02:25:37.649Z,22.02
2023-02-25T02:26:37.574Z,22.01
2023-02-25T02:27:37.499Z,22.02
2023-02-25T02:28:38.122Z,22.02
2023-02-25T02:29:37.354Z,22.02
2023-02-25T02:30:37.361Z,22.02
2023-02-25T02:31:37.247Z,22.02
2023-02-25T02:32:37.185Z,22.02
2023-02-25T02:33:37.073Z,22.01
2023-02-25T02:34:37.003Z,22.01
2023-02-25T02:35:36.927Z,22.01
2023-02-25T02:36:36.839Z,22.01
2023-02-25T02:37:36.765Z,22.01
2023-02-25T02:38:36.699Z,22.01
2023-02-25T02:39:36.618Z,22.01
2023-02-25T02:40:36.552Z,22.01
2023-02-25T02:41:36.472Z,22.01
2023-02-25T02:42:36.449Z,22.01
2023-02-25T02:43:36.320Z,22.01
2023-02-25T02:44:36.241Z,22.01
2023-02-25T02:45:36.226Z,22.01
2023-02-25T02:46:36.096Z,22.01
2023-02-25T02:47:36.115Z,22.02
2023-02-25T02:48:35.944Z,22.01
2023-02-25T02:49:35.869Z,22.01
2023-02-25T02:50:35.794Z,22.01
2023-02-25T02:51:35.710Z,22.01
2023-02-25T02:52:35.645Z,22.01
2023-02-25T02:53:35.577Z,22.01
2023-02-25T02:54:35.479Z,22.00
2023-02-25T02:55:35.411Z,22.00
2023-02-25T02:56:35.338Z,22.01
2023-02-25T02:57:35.620Z,22.00
2023-02-25T02:58:35.206Z,22.01
2023-02-25T02:59:35.155Z,22.01
2023-02-25T03:00:35.033Z,22.01
2023-02-25T03:01:35.060Z,22.00
2023-02-25T03:02:34.883Z,22.01
2023-02-25T03:03:34.830Z,22.00
2023-02-25T03:04:34.752Z,22.01
2023-02-25T03:05:34.646Z,22.00
2023-02-25T03:06:34.579Z,22.00
2023-02-25T03:07:34.564Z,22.01
2023-02-25T03:08:34.406Z,22.00
2023-02-25T03:09:34.364Z,22.00
2023-02-25T03:10:34.256Z,22.01
2023-02-25T03:11:34.158Z,22.01
2023-02-25T03:12:34.081Z,22.00
2023-02-25T03:13:33.993Z,22.00
2023-02-25T03:14:33.921Z,22.01
2023-02-25T03:15:33.839Z,22.00
2023-02-25T03:16:33.796Z,22.00
2023-02-25T03:17:33.692Z,22.01
2023-02-25T03:18:34.123Z,22.00
2023-02-25T03:19:33.534Z,22.00
2023-02-25T03:20:33.457Z,22.01
2023-02-25T03:21:33.389Z,22.00
2023-02-25T03:22:33.310Z,22.00
2023-02-25T03:23:33.241Z,22.00
2023-02-25T03:24:33.146Z,22.01
2023-02-25T03:25:33.075Z,22.01
2023-02-25T03:26:32.991Z,22.01
2023-02-25T03:27:32.921Z,22.01
2023-02-25T03:28:32.835Z,22.00
2023-02-25T03:29:32.755Z,22.00
2023-02-25T03:30:32.679Z,22.01
2023-02-25T03:31:32.603Z,22.02
2023-02-25T03:32:34.417Z,22.02
2023-02-25T03:33:32.395Z,22.02
2023-02-25T03:34:32.291Z,22.01
2023-02-25T03:35:32.177Z,22.02
2023-02-25T03:36:32.074Z,22.02
2023-02-25T03:37:31.949Z,22.02
2023-02-25T03:38:32.139Z,22.02
2023-02-25T03:39:32.135Z,22.02
2023-02-25T03:40:31.620Z,22.02
2023-02-25T03:41:31.504Z,22.02
2023-02-25T03:42:31.405Z,22.02
2023-02-25T03:43:31.291Z,22.02
2023-02-25T03:44:31.187Z,22.02
2023-02-25T03:45:31.066Z,22.02
2023-02-25T03:46:31.122Z,22.01
2023-02-25T03:47:30.876Z,22.01
2023-02-25T03:48:30.756Z,22.01
2023-02-25T03:49:30.659Z,22.02
2023-02-25T03:50:30.532Z,22.02
2023-02-25T03:51:30.428Z,22.02
2023-02-25T03:52:30.356Z,22.01
2023-02-25T03:53:30.211Z,22.02
2023-02-25T03:54:30.636Z,22.02
2023-02-25T03:55:29.960Z,22.02
2023-02-25T03:56:29.853Z,22.02
2023-02-25T03:57:29.830Z,22.02
2023-02-25T03:58:29.616Z,22.03
2023-02-25T03:59:29.523Z,22.02
2023-02-25T04:00:29.406Z,22.03
2023-02-25T04:01:29.289Z,22.02
2023-02-25T04:02:29.201Z,22.03
2023-02-25T04:03:29.057Z,22.04
2023-02-25T04:04:29.019Z,22.02
2023-02-25T04:05:28.845Z,22.03
2023-02-25T04:06:28.712Z,22.03
2023-02-25T04:07:28.607Z,22.03
2023-02-25T04:08:28.560Z,22.03
2023-02-25T04:09:28.448Z,22.03
2023-02-25T04:10:28.342Z,22.03
2023-02-25T04:11:28.152Z,22.03
2023-02-25T04:12:28.038Z,22.03
2023-02-25T04:13:27.928Z,22.03
2023-02-25T04:14:27.841Z,22.03
2023-02-25T04:15:27.756Z,22.04
2023-02-25T04:16:27.589Z,22.03
2023-02-25T04:17:28.137Z,22.03
2023-02-25T04:18:27.353Z,22.02
2023-02-25T04:19:27.245Z,22.03
2023-02-25T04:20:27.127Z,22.03
2023-02-25T04:21:27.036Z,22.03
2023-02-25T04:22:26.925Z,22.03
2023-02-25T04:23:26.804Z,22.03
2023-02-25T04:24:26.676Z,22.03
2023-02-25T04:25:26.572Z,22.03
2023-02-25T04:26:26.460Z,22.02
2023-02-25T04:27:26.332Z,22.03
2023-02-25T04:28:27.146Z,22.03
2023-02-25T04:29:26.122Z,22.03
2023-02-25T04:30:26.047Z,22.02
2023-02-25T04:40:26.143Z,22.02
2023-02-25T04:42:25.083Z,22.02
2023-02-25T04:43:24.997Z,22.02
2023-02-25T04:44:24.920Z,22.02
2023-02-25T04:45:26.755Z,22.01
2023-02-25T04:46:25.134Z,22.02
2023-02-25T04:47:24.741Z,22.02
2023-02-25T04:48:24.600Z,22.01
2023-02-25T04:49:24.539Z,22.01
2023-02-25T04:50:24.457Z,22.01
2023-02-25T04:51:24.379Z,22.02
2023-02-25T04:52:24.312Z,22.01
2023-02-25T04:54:24.222Z,22.01
2023-02-25T04:55:24.100Z,22.01
2023-02-25T04:56:24.402Z,22.01
2023-02-25T06:06:19.152Z,21.99
2023-02-25T06:07:19.073Z,22.00
2023-02-25T06:08:19.018Z,21.99
2023-02-25T06:09:18.946Z,21.99
2023-02-25T06:10:18.880Z,21.99
2023-02-25T06:11:18.809Z,21.99
2023-02-25T06:12:18.739Z,21.99
2023-02-25T06:13:18.676Z,21.99
2023-02-25T06:14:18.595Z,21.99
2023-02-25T06:15:18.610Z,21.99
2023-02-25T06:16:18.504Z,21.99
2023-02-25T06:17:18.472Z,21.99
2023-02-25T06:18:18.324Z,22.00
2023-02-25T06:19:18.260Z,21.99
2023-02-25T06:20:18.199Z,22.00
2023-02-25T06:21:18.129Z,21.99
2023-02-25T06:22:18.035Z,22.00
2023-02-25T06:23:17.979Z,21.99
2023-02-25T06:24:17.898Z,22.00
2023-02-25T06:25:17.839Z,22.00
2023-02-25T06:26:17.764Z,21.98
2023-02-25T06:27:17.702Z,22.00
2023-02-25T06:28:17.628Z,21.99
2023-02-25T06:29:17.554Z,22.00
2023-02-25T06:30:17.476Z,22.00
2023-02-25T06:31:17.477Z,22.00
2023-02-25T06:32:17.451Z,22.00
2023-02-25T06:33:17.271Z,21.99
2023-02-25T06:34:17.192Z,22.01
2023-02-25T06:35:17.121Z,22.00
2023-02-25T06:36:17.054Z,22.00
2023-02-25T06:37:16.968Z,22.00
2023-02-25T06:38:16.914Z,22.00
2023-02-25T06:39:16.841Z,22.01
2023-02-25T06:40:16.761Z,22.01
2023-02-25T06:41:16.755Z,22.00
2023-02-25T06:42:16.618Z,22.00
2023-02-25T06:43:16.546Z,22.00
2023-02-25T06:44:16.463Z,22.00
2023-02-25T06:45:16.392Z,22.01
2023-02-25T06:46:17.215Z,22.01
2023-02-25T06:47:16.251Z,22.01
2023-02-25T06:48:16.176Z,22.01
2023-02-25T06:49:16.100Z,22.01
2023-02-25T06:50:16.038Z,22.01
2023-02-25T06:51:15.958Z,22.01
2023-02-25T08:16:10.101Z,22.04
2023-02-25T08:17:09.960Z,22.04
2023-02-25T08:18:09.890Z,22.05
2023-02-25T08:19:09.830Z,22.04
2023-02-25T08:20:09.741Z,22.05
2023-02-25T08:21:09.733Z,22.04
2023-02-25T08:22:09.598Z,22.05
2023-02-25T08:23:09.535Z,22.04
2023-02-25T08:24:09.467Z,22.04
2023-02-25T08:25:10.210Z,22.04
2023-02-25T08:26:09.321Z,22.04
2023-02-25T08:27:09.258Z,22.04
2023-02-25T08:28:09.183Z,22.05
2023-02-25T08:29:09.113Z,22.05
2023-02-25T08:30:09.024Z,22.05
2023-02-25T08:31:09.060Z,22.05
2023-02-25T08:32:09.056Z,22.05
2023-02-25T08:33:08.830Z,22.05
2023-02-25T08:34:08.745Z,22.05
2023-02-25T08:35:08.756Z,22.05
2023-02-25T08:36:08.612Z,22.06
2023-02-25T08:37:08.530Z,22.06
2023-02-25T08:38:08.458Z,22.06
2023-02-25T08:39:08.391Z,22.06
2023-02-25T08:40:08.310Z,22.06
2023-02-25T08:41:08.251Z,22.07
2023-02-25T08:42:08.168Z,22.07
2023-02-25T08:43:08.095Z,22.07
2023-02-25T08:44:08.046Z,22.06
2023-02-25T08:45:07.959Z,22.06
2023-02-25T09:00:06.832Z,22.10
2023-02-25T09:01:06.761Z,22.10
2023-02-25T09:02:06.665Z,22.10
2023-02-25T09:03:06.593Z,22.10
2023-02-25T09:04:06.546Z,22.10
2023-02-25T09:05:06.463Z,22.11
2023-02-25T09:06:06.355Z,22.11
2023-02-25T09:07:06.281Z,22.11
2023-02-25T09:08:06.202Z,22.11
2023-02-25T09:09:06.155Z,22.12
2023-02-25T09:10:06.037Z,22.11
2023-02-25T09:11:05.975Z,22.12
2023-02-25T10:13:00.856Z,22.20
2023-02-25T10:14:00.755Z,22.21
2023-02-25T10:15:01.066Z,22.20
2023-02-25T10:16:00.591Z,22.21
2023-02-25T10:17:00.580Z,22.21
2023-02-25T10:18:00.421Z,22.22
2023-02-25T10:19:00.339Z,22.21
2023-02-25T10:20:00.257Z,22.22
2023-02-25T10:21:00.183Z,22.22
2023-02-25T10:22:00.155Z,22.21
2023-02-25T10:23:00.015Z,22.22
2023-02-25T10:23:59.931Z,22.22
2023-02-25T10:24:59.851Z,22.22
2023-02-25T10:25:59.832Z,22.22
2023-02-25T10:26:59.671Z,22.23
2023-02-25T10:27:59.573Z,22.22
2023-02-25T10:28:59.514Z,22.23
2023-02-25T10:29:59.415Z,22.22
2023-02-25T10:30:59.505Z,22.23
2023-02-25T10:31:59.486Z,22.22
2023-02-25T10:32:59.212Z,22.21
2023-02-25T10:48:57.902Z,22.24
2023-02-25T10:49:57.807Z,22.24
2023-02-25T10:50:57.711Z,22.24
2023-02-25T10:51:57.634Z,22.24
2023-02-25T10:52:57.546Z,22.25
2023-02-25T10:53:57.473Z,22.24
2023-02-25T10:54:57.369Z,22.25
2023-02-25T10:55:57.284Z,22.25
2023-02-25T10:56:57.214Z,22.26
2023-02-25T10:57:57.109Z,22.25
2023-02-25T10:58:57.028Z,22.26
2023-02-25T10:59:56.948Z,22.26
2023-02-25T11:00:56.864Z,22.26
2023-02-25T11:01:56.867Z,22.26
2023-02-25T11:02:56.809Z,22.26
2023-02-25T11:03:56.626Z,22.26
2023-02-25T11:04:56.580Z,22.25
2023-02-25T11:05:56.458Z,22.26
2023-02-25T11:06:56.758Z,22.27
2023-02-25T11:07:56.287Z,22.26
2023-02-25T11:08:56.219Z,22.26
2023-02-25T11:09:56.112Z,22.26
2023-02-25T11:10:56.036Z,22.25
2023-02-25T11:11:55.952Z,22.26
2023-02-25T11:21:55.053Z,22.27
2023-02-25T11:22:54.959Z,22.27
2023-02-25T11:23:54.895Z,22.27
2023-02-25T11:24:54.785Z,22.26
2023-02-25T11:25:54.691Z,22.26
2023-02-25T11:26:54.641Z,22.27
2023-02-25T11:27:54.518Z,22.26
2023-02-25T11:28:54.428Z,22.26
2023-02-25T11:29:54.344Z,22.27
2023-02-25T11:30:54.450Z,22.27
2023-02-25T11:31:54.344Z,22.27
2023-02-25T11:32:54.157Z,22.27
2023-02-25T11:33:53.988Z,22.27
2023-02-25T11:34:53.885Z,22.27
2023-02-25T11:35:53.803Z,22.27
2023-02-25T11:36:53.728Z,22.26
2023-02-25T11:37:53.627Z,22.28
2023-02-25T11:38:53.553Z,22.28
2023-02-25T11:39:53.458Z,22.28
2023-02-25T11:40:53.770Z,22.28
2023-02-25T11:41:53.280Z,22.28
2023-02-25T11:42:53.191Z,22.29
2023-02-25T11:43:53.091Z,22.28
2023-02-25T11:44:53.027Z,22.27
2023-02-25T11:45:52.919Z,22.27
2023-02-25T11:46:52.920Z,22.27
2023-02-25T11:47:52.749Z,22.29
2023-02-25T11:48:52.658Z,22.28
2023-02-25T11:49:52.559Z,22.28
2023-02-25T11:50:52.458Z,22.28
2023-02-25T11:51:52.370Z,22.28
2023-02-25T11:52:52.287Z,22.28
2023-02-25T11:53:52.293Z,22.28
2023-02-25T11:54:52.085Z,22.28
2023-02-25T11:55:52.003Z,22.29
2023-02-25T11:56:51.975Z,22.29
2023-02-25T11:57:51.822Z,22.29
2023-02-25T11:58:51.707Z,22.29
2023-02-25T11:59:51.633Z,22.29
2023-02-25T12:00:51.551Z,22.29
2023-02-25T12:01:51.464Z,22.29
2023-02-25T12:02:51.451Z,22.30
2023-02-25T12:03:51.371Z,22.29
2023-02-25T12:04:51.201Z,22.29
2023-02-25T12:05:51.157Z,22.29
2023-02-25T12:06:51.032Z,22.29
2023-02-25T12:08:05.112Z,22.29
2023-02-25T12:08:51.833Z,22.28
2023-02-25T12:09:50.791Z,22.28
2023-02-25T12:10:50.598Z,22.29
2023-02-25T12:11:50.487Z,22.28
2023-02-25T12:12:50.366Z,22.29
2023-02-25T12:13:50.319Z,22.27
2023-02-25T12:14:50.152Z,22.29
2023-02-25T12:15:50.094Z,22.29
2023-02-25T12:16:49.934Z,22.29
2023-02-25T12:17:49.849Z,22.29
2023-02-25T12:18:49.715Z,22.29
2023-02-25T12:19:49.592Z,22.29
2023-02-25T12:20:49.484Z,22.29
2023-02-25T12:21:49.365Z,22.29
2023-02-25T12:22:49.245Z,22.29
2023-02-25T12:23:49.139Z,22.28
2023-02-25T12:24:49.013Z,22.29
2023-02-25T12:25:48.901Z,22.28
2023-02-25T12:26:48.781Z,22.28
2023-02-25T12:27:48.668Z,22.28
2023-02-25T12:28:49.870Z,22.27
2023-02-25T12:29:48.427Z,22.29
2023-02-25T12:30:48.345Z,22.28
2023-02-25T12:31:48.347Z,22.28
2023-02-25T12:32:48.157Z,22.27
2023-02-25T12:33:48.061Z,22.28
2023-02-25T12:34:47.981Z,22.27
2023-02-25T12:35:47.889Z,22.27
2023-02-25T12:36:48.786Z,22.28
2023-02-25T12:37:47.798Z,22.27
2023-02-25T12:38:47.624Z,22.28
2023-02-25T12:39:47.527Z,22.27
2023-02-25T12:40:47.433Z,22.27
2023-02-25T12:41:47.338Z,22.27
2023-02-25T12:42:47.250Z,22.27
2023-02-25T12:43:47.164Z,22.27
2023-02-25T12:44:47.080Z,22.28
2023-02-25T12:45:47.006Z,22.27
2023-02-25T12:46:46.952Z,22.27
2023-02-25T12:47:46.797Z,22.27
2023-02-25T12:48:46.758Z,22.26
2023-02-25T12:49:46.599Z,22.27
2023-02-25T12:50:46.493Z,22.26
2023-02-25T12:51:46.396Z,22.26
2023-02-25T12:52:46.308Z,22.26
2023-02-25T12:53:46.219Z,22.26
2023-02-25T12:54:46.288Z,22.25
2023-02-25T12:55:46.028Z,22.26
2023-02-25T12:56:45.933Z,22.25
2023-02-25T12:57:45.836Z,22.25
2023-02-25T12:58:45.773Z,22.25
2023-02-25T12:59:45.778Z,22.26
2023-02-25T13:00:45.602Z,22.25
2023-02-25T13:01:45.501Z,22.25
2023-02-25T13:02:45.378Z,22.26
2023-02-25T13:03:45.351Z,22.25
2023-02-25T13:04:45.226Z,22.25
2023-02-25T13:05:45.123Z,22.25
2023-02-25T13:06:45.034Z,22.25
2023-02-25T13:07:44.963Z,22.25
2023-02-25T13:08:44.883Z,22.25
2023-02-25T13:09:44.795Z,22.24
2023-02-25T13:10:44.705Z,22.24
2023-02-25T13:12:10.114Z,22.25
2023-02-25T13:12:45.505Z,22.24
2023-02-25T13:13:44.388Z,22.24
2023-02-25T13:14:44.281Z,22.24
2023-02-25T13:15:44.168Z,22.24
2023-02-25T13:16:44.156Z,22.24
2023-02-25T13:17:43.933Z,22.23
2023-02-25T13:18:43.830Z,22.24
2023-02-25T13:19:43.711Z,22.23
2023-02-25T13:20:43.610Z,22.24
2023-02-25T13:21:43.483Z,22.23
2023-02-25T13:22:43.369Z,22.23
2023-02-25T13:23:43.244Z,22.23
2023-02-25T13:24:43.141Z,22.23
2023-02-25T13:25:43.032Z,22.23
2023-02-25T13:26:42.915Z,22.23
2023-02-25T13:27:42.856Z,22.22
2023-02-25T13:28:42.779Z,22.23
2023-02-25T13:29:42.586Z,22.22
2023-02-25T13:30:42.510Z,22.23
2023-02-25T13:31:42.531Z,22.22
2023-02-25T13:32:42.356Z,22.21
2023-02-25T13:33:42.158Z,22.22
2023-02-25T13:34:42.133Z,22.22
2023-02-25T13:35:42.006Z,22.21
2023-02-25T13:36:41.918Z,22.22
2023-02-25T13:37:41.851Z,22.21
2023-02-25T13:38:41.766Z,22.21
2023-02-25T13:39:42.288Z,22.21
2023-02-25T13:40:41.603Z,22.21
2023-02-25T13:41:41.504Z,22.21
2023-02-25T13:42:41.419Z,22.21
2023-02-25T13:43:41.341Z,22.21
2023-02-25T13:44:41.252Z,22.21
2023-02-25T13:45:41.217Z,22.21
2023-02-25T13:46:41.089Z,22.20
2023-02-25T13:47:41.004Z,22.20
2023-02-25T13:48:40.913Z,22.20
2023-02-25T13:49:40.841Z,22.19
2023-02-25T13:50:40.746Z,22.20
2023-02-25T13:51:40.678Z,22.20
2023-02-25T13:52:40.686Z,22.20
2023-02-25T13:53:40.490Z,22.19
2023-02-25T13:54:40.477Z,22.20
2023-02-25T13:55:40.333Z,22.19
2023-02-25T13:56:40.252Z,22.19
2023-02-25T13:57:40.146Z,22.20
2023-02-25T13:58:40.079Z,22.19
2023-02-25T13:59:39.998Z,22.19
2023-02-25T14:00:39.884Z,22.19
2023-02-25T14:01:39.824Z,22.19
2023-02-25T14:02:39.804Z,22.19
2023-02-25T14:03:39.618Z,22.19
2023-02-25T14:04:39.540Z,22.19
2023-02-25T14:05:39.457Z,22.18
2023-02-25T14:06:39.436Z,22.18
2023-02-25T14:07:39.283Z,22.18
2023-02-25T14:08:39.244Z,22.18
2023-02-25T14:09:39.091Z,22.18
2023-02-25T14:10:39.037Z,22.17
2023-02-25T14:11:38.921Z,22.17
2023-02-25T14:12:39.821Z,22.17
2023-02-25T14:13:38.797Z,22.18
2023-02-25T14:14:38.665Z,22.16
2023-02-25T14:15:38.588Z,22.17
2023-02-25T14:16:38.487Z,22.16
2023-02-25T14:17:38.415Z,22.17
2023-02-25T14:18:38.314Z,22.16
2023-02-25T14:19:38.243Z,22.16
2023-02-25T14:20:38.150Z,22.16
2023-02-25T14:21:38.056Z,22.16
2023-02-25T14:22:38.072Z,22.16
2023-02-25T14:23:37.977Z,22.16
2023-02-25T14:24:37.978Z,22.16
2023-02-25T14:25:37.854Z,22.17
2023-02-25T14:26:37.733Z,22.17
2023-02-25T14:27:37.734Z,22.16
2023-02-25T14:28:37.563Z,22.15
2023-02-25T14:29:37.485Z,22.16
2023-02-25T14:30:37.421Z,22.15
2023-02-25T14:31:37.404Z,22.15
2023-02-25T14:32:37.328Z,22.14
2023-02-25T14:33:37.229Z,22.15
2023-02-25T14:34:37.066Z,22.14
2023-02-25T14:35:36.973Z,22.14
2023-02-25T14:36:36.896Z,22.14
2023-02-25T14:37:36.814Z,22.14
2023-02-25T14:38:36.739Z,22.14
2023-02-25T14:39:36.660Z,22.14
2023-02-25T14:40:36.570Z,22.13
2023-02-25T14:41:36.482Z,22.14
2023-02-25T14:42:36.402Z,22.13
2023-02-25T14:43:36.312Z,22.14
2023-02-25T14:44:36.235Z,22.13
2023-02-25T14:45:36.142Z,22.13
2023-02-25T14:46:36.074Z,22.13
2023-02-25T14:47:35.990Z,22.12
2023-02-25T15:48:31.411Z,22.05
2023-02-25T15:49:31.450Z,22.04
2023-02-25T15:51:31.188Z,22.05
2023-02-25T15:52:31.110Z,22.05
2023-02-25T15:53:31.035Z,22.05
2023-02-25T15:54:30.962Z,22.04
2023-02-25T15:55:30.892Z,22.04
2023-02-25T15:56:30.812Z,22.04
2023-02-25T15:57:30.749Z,22.04
2023-02-25T15:58:30.705Z,22.04
2023-02-25T15:59:30.604Z,22.04
2023-02-25T16:00:30.593Z,22.03
2023-02-25T16:01:30.885Z,22.05
2023-02-25T16:02:30.471Z,22.04
2023-02-25T16:03:30.312Z,22.04
2023-02-25T16:04:30.256Z,22.03
2023-02-25T16:05:30.174Z,22.04
2023-02-25T16:06:30.144Z,22.04
2023-02-25T16:07:30.034Z,22.03
2023-02-25T16:08:29.980Z,22.04
2023-02-25T16:09:29.910Z,22.04
2023-02-25T16:10:29.842Z,22.04
2023-02-25T16:11:29.782Z,22.03
2023-02-25T16:12:29.803Z,22.03
2023-02-25T16:13:29.696Z,22.03
2023-02-25T16:14:29.635Z,22.03
2023-02-25T16:15:29.484Z,22.03
2023-02-25T16:16:29.492Z,22.02
2023-02-25T16:17:29.347Z,22.02
2023-02-25T16:18:29.296Z,22.02
2023-02-25T16:19:29.201Z,22.02
2023-02-25T16:20:29.129Z,22.01
2023-02-25T16:21:29.068Z,22.01
2023-02-25T16:22:28.996Z,22.01
2023-02-25T16:23:28.937Z,22.01
2023-02-25T16:24:28.870Z,22.00
2023-02-25T16:25:28.791Z,22.00
2023-02-25T16:26:28.736Z,21.99
2023-02-25T16:27:28.668Z,22.00
2023-02-25T16:28:28.628Z,21.99
2023-02-25T16:29:28.538Z,22.00
2023-02-25T16:30:28.494Z,21.99
2023-02-25T16:31:28.475Z,21.99
2023-02-25T16:32:28.392Z,21.99
2023-02-25T16:33:28.292Z,21.98
2023-02-25T16:34:28.229Z,21.98
2023-02-25T16:35:28.173Z,21.98
2023-02-25T16:36:28.111Z,21.98
2023-02-25T16:37:28.044Z,21.98
2023-02-25T16:38:27.982Z,21.97
2023-02-25T16:39:27.931Z,21.97
2023-02-25T16:40:27.939Z,21.97
2023-02-25T16:41:33.383Z,21.97
2023-02-25T16:42:28.691Z,21.96
2023-02-25T16:43:27.593Z,21.96
2023-02-25T16:44:27.481Z,21.97
2023-02-25T16:45:27.401Z,21.95
2023-02-25T16:46:27.254Z,21.96
2023-02-25T16:47:27.160Z,21.96
2023-02-25T16:48:27.046Z,21.95
2023-02-25T16:49:26.948Z,21.96
2023-02-25T16:50:26.843Z,21.96
2023-02-25T16:51:26.905Z,21.95
2023-02-25T16:52:26.644Z,21.96
2023-02-25T16:53:26.561Z,21.96
2023-02-25T16:54:26.449Z,21.95
2023-02-25T16:55:26.385Z,21.95
2023-02-25T16:56:26.533Z,21.95
2023-02-25T16:57:26.277Z,21.95
2023-02-25T16:58:26.214Z,21.94
2023-02-25T16:59:26.142Z,21.95
2023-02-25T17:00:26.165Z,21.95
2023-02-25T17:01:26.047Z,21.95
2023-02-25T17:02:26.030Z,21.95
2023-02-25T17:56:23.233Z,21.91
2023-02-25T17:57:22.713Z,21.91
2023-02-25T17:58:22.654Z,21.91
2023-02-25T17:59:22.604Z,21.90
2023-02-25T18:00:22.539Z,21.91
2023-02-25T18:01:22.494Z,21.91
2023-02-25T18:02:22.440Z,21.91
2023-02-25T18:03:22.375Z,21.91
2023-02-25T18:04:22.326Z,21.91
2023-02-25T18:05:22.253Z,21.90
2023-02-25T18:06:22.406Z,21.91
2023-02-25T18:07:22.147Z,21.90
2023-02-25T18:08:22.088Z,21.90
2023-02-25T18:09:22.028Z,21.91
2023-02-25T18:10:21.965Z,21.90
2023-02-25T18:11:21.994Z,21.91
2023-02-25T18:12:21.844Z,21.91
2023-02-25T18:13:21.794Z,21.91
2023-02-25T18:14:21.722Z,21.91
2023-02-25T18:15:21.684Z,21.90
2023-02-25T18:16:21.713Z,21.91
2023-02-25T18:17:21.547Z,21.91
2023-02-25T18:18:21.496Z,21.90
2023-02-25T18:19:21.438Z,21.90
2023-02-25T18:20:21.380Z,21.90
2023-02-25T18:21:21.326Z,21.90
2023-02-25T18:22:21.271Z,21.90
2023-02-25T18:23:21.265Z,21.90
2023-02-25T18:24:21.150Z,21.90
2023-02-25T18:25:21.094Z,21.89
2023-02-25T18:26:21.045Z,21.89
2023-02-25T18:27:21.383Z,21.90
2023-02-25T18:28:20.957Z,21.90
2023-02-25T18:29:20.872Z,21.89
2023-02-25T18:30:20.811Z,21.89
2023-02-25T18:31:20.906Z,21.89
2023-02-25T18:32:20.741Z,21.89
2023-02-25T18:33:20.640Z,21.89
2023-02-25T18:34:20.584Z,21.89
2023-02-25T18:35:20.525Z,21.89
2023-02-25T18:36:20.469Z,21.89
2023-02-25T18:37:20.402Z,21.89
2023-02-25T18:38:20.332Z,21.89
2023-02-25T18:39:20.276Z,21.89
2023-02-25T18:40:20.285Z,21.89
2023-02-25T18:41:20.158Z,21.89
2023-02-25T18:42:20.091Z,21.89
2023-02-25T18:43:20.045Z,21.89
2023-02-25T18:44:19.981Z,21.88
2023-02-25T18:45:19.940Z,21.89
2023-02-25T18:46:20.408Z,21.89
2023-02-25T18:47:19.827Z,21.89
2023-02-25T18:48:19.757Z,21.89
2023-02-25T18:49:19.776Z,21.89
2023-02-25T18:50:19.651Z,21.89
2023-02-25T18:51:19.618Z,21.89
2023-02-25T18:52:19.547Z,21.89
2023-02-25T18:53:19.482Z,21.89
2023-02-25T18:54:19.423Z,21.89
2023-02-25T18:55:19.463Z,21.88
2023-02-25T18:56:19.321Z,21.88
2023-02-25T18:57:19.263Z,21.88
2023-02-25T18:58:19.189Z,21.88
2023-02-25T18:59:19.131Z,21.88
2023-02-25T19:00:19.074Z,21.88
2023-02-25T19:01:19.132Z,21.88
2023-02-25T19:02:19.964Z,21.88
2023-02-25T19:03:18.917Z,21.88
2023-02-25T19:04:18.862Z,21.88
2023-02-25T19:05:18.805Z,21.87
2023-02-25T19:06:18.749Z,21.87
2023-02-25T19:07:18.748Z,21.88
2023-02-25T19:08:18.627Z,21.87
2023-02-25T19:09:18.656Z,21.88
2023-02-25T19:10:18.514Z,21.88
2023-02-25T19:11:18.460Z,21.88
2023-02-25T19:12:18.403Z,21.88
2023-02-25T19:13:18.349Z,21.87
2023-02-25T19:14:18.318Z,21.87
2023-02-25T19:15:18.244Z,21.86
2023-02-25T19:16:18.216Z,21.87
2023-02-25T19:17:18.142Z,21.87
2023-02-25T19:18:18.075Z,21.87
2023-02-25T19:19:18.030Z,21.87
2023-02-25T19:20:17.960Z,21.86
2023-02-25T19:21:17.902Z,21.87
2023-02-25T19:22:17.851Z,21.87
2023-02-25T19:23:17.809Z,21.87
2023-02-25T19:24:17.748Z,21.86
2023-02-25T19:25:17.684Z,21.87
2023-02-25T19:26:17.642Z,21.87
2023-02-25T19:27:17.564Z,21.87
2023-02-25T19:38:16.960Z,21.86
2023-02-25T19:39:16.926Z,21.85
2023-02-25T19:40:16.894Z,21.86
2023-02-25T19:41:16.783Z,21.86
2023-02-25T19:43:16.679Z,21.85
2023-02-25T19:44:16.623Z,21.85
2023-02-25T19:45:16.615Z,21.85
2023-02-25T19:46:17.508Z,21.85
2023-02-25T19:47:16.473Z,21.85
2023-02-25T19:48:16.399Z,21.85
2023-02-25T19:49:16.349Z,21.85
2023-02-25T19:50:16.292Z,21.85
2023-02-25T19:51:16.300Z,21.85
2023-02-25T19:54:16.059Z,21.85
2023-02-25T19:55:16.025Z,21.85
2023-02-25T19:56:15.944Z,21.85
2023-02-25T21:18:11.598Z,21.83
2023-02-25T21:19:11.545Z,21.83
2023-02-25T21:20:11.490Z,21.83
2023-02-25T21:21:11.431Z,21.83